Raritan, IL (61471)

1:05 PM CST on February 06, 2016 (GMT -0600)
APRSWXNET | | Change Station
CLOSE
Current Station
Personal Weather Station
Location: Raritan, IL
Elevation: 759 ft
Nearby Weather Stations

Elev 759 ft 40.70 °N, 90.83 °W | Updated 24 minutes ago

Clear
Clear
43 °F
Feels Like 39 °F
N
6
Wind Variable Wind from SW
Gusts 9.0 mph

Today
High -- | Low -- °F
--% Chance of Precip.
Yesterday
High -- | Low -- °F
Precip. -- in
Pressure 30.23 in
Visibility 10.0 miles
Clouds Clear
Windchill 39 °F
Dew Point 31 °F
Humidity 63%
Rainfall in
Snow Depth Not available.
7:08 AM 5:26 PM
Waning Crescent, 4% visible
METAR KMQB 061855Z AUTO 22010KT 10SM CLR 08/M02 A3023 RMK AO2 T00751017
Pressure 30.23 in
Visibility 10.0 miles
Clouds Clear
Windchill 39 °F
Dew Point 31 °F
Humidity 63%
Rainfall in
Snow Depth Not available.
7:08 AM 5:26 PM
Waning Crescent, 4% visible
METAR KMQB 061855Z AUTO 22010KT 10SM CLR 08/M02 A3023 RMK AO2 T00751017

10-Day Weather Forecast

Almanac

Astronomy

Feb. 06, 2016 Rise Set
Actual Time
Civil Twilight
Nautical Twilight
Astronomical Twilight
Moon
Length of Visible Light
Length of Day
Tomorrow will be .
, % of the Moon is Illuminated

Today's Extremes

State Highs State Lows

Community

WunderPhotos

Upload Photos

1,891,033 photos uploaded!

WunderBlog® & News

Nearby

Air Quality

  Air Quality AQ Index Pollutant
Not available.

Snow Depth

Station Depth Elevation

Earthquake Activity

City Distance Mag. Time & Date
Minimum magnitude displayed is 2.5.

Coastal Water Temperatures

Place Temperature

Stations

Nearby Weather Stations

Station Location Temp. Windchill Dew Point Humidity Wind Precip. Elev Updated Type
                   

Watches & Warnings

There are currently no watches in effect.